Current Weather

Branch County Meml

Coldwater, Michigan (KOEB)

Report from: Wednesday, May 29, 2024 7:35 PM EDT
Current time: Wednesday, May 29, 2024 7:53 PM EDT

Nearby weather – Weather history – Daily summaries
Weather forecast

Temperature19.6°C (67.3°F)
Dew point9.7°C (49.5°F)
Winds 4 kts (2.1 m/s, 4.6 mph) North-Northeast (20°)
Visibility10 mi. (16.1 km)
Clouds Ceiling: Broken clouds 5,000 ft. (1,524 m)
Broken clouds 7,500 ft. (2,286 m)
Altimeter30.12 in.Hg (1020 mB)
Relative humidity53 %
Density altitude484 ft. (148 m)
Remarks Fully automated report
Automated weather observing station with precipitation discriminator
Flight conditions Visual Meteorological Conditions
Raw dataKOEB 292335Z AUTO 02004KT 10SM BKN050 BKN075 20/10 A3012 RMK AO2 T01960097
An error has occurred. This application may no longer respond until reloaded. Reload 🗙